createdAt,value
2022-12-31T00:01:56.642Z,97363.25
2022-12-31T00:04:23.329Z,97369.47
2022-12-31T00:06:49.932Z,97377.91
2022-12-31T00:09:16.539Z,97387.00
2022-12-31T00:11:43.137Z,97382.84
2022-12-31T00:14:09.775Z,97382.84
2022-12-31T00:16:38.436Z,97358.66
2022-12-31T00:19:08.466Z,97363.84
2022-12-31T00:21:35.214Z,97365.78
2022-12-31T00:24:02.189Z,97358.69
2022-12-31T00:26:29.905Z,97355.41
2022-12-31T00:28:56.949Z,97365.19
2022-12-31T00:31:25.353Z,97379.53
2022-12-31T00:33:52.064Z,97374.19
2022-12-31T00:36:20.829Z,97346.81
2022-12-31T00:38:48.830Z,97358.28
2022-12-31T00:41:15.559Z,97358.03
2022-12-31T00:43:42.216Z,97351.84
2022-12-31T00:46:08.931Z,97351.94
2022-12-31T00:48:35.704Z,97352.28
2022-12-31T00:51:03.259Z,97349.44
2022-12-31T00:53:29.884Z,97352.94
2022-12-31T00:56:03.816Z,97350.25
2022-12-31T00:58:30.433Z,97344.22
2022-12-31T01:00:57.504Z,97349.63
2022-12-31T01:03:24.883Z,97353.84
2022-12-31T01:05:52.060Z,97352.13
2022-12-31T01:08:18.667Z,97363.50
2022-12-31T01:10:51.554Z,97367.28
2022-12-31T01:13:18.212Z,97362.63
2022-12-31T01:15:44.942Z,97360.72
2022-12-31T01:18:11.822Z,97353.13
2022-12-31T01:20:39.823Z,97351.31
2022-12-31T01:23:06.755Z,97346.72
2022-12-31T01:25:39.665Z,97355.25
2022-12-31T01:28:06.335Z,97361.00
2022-12-31T01:30:33.104Z,97365.50
2022-12-31T01:32:59.777Z,97367.63
2022-12-31T01:35:26.495Z,97350.63
2022-12-31T01:37:53.111Z,97358.75
2022-12-31T01:40:19.719Z,97364.94
2022-12-31T01:42:53.961Z,97362.44
2022-12-31T01:45:20.631Z,97356.78
2022-12-31T01:47:49.777Z,97360.31
2022-12-31T01:50:27.974Z,97356.78
2022-12-31T01:52:57.135Z,97357.25
2022-12-31T01:55:46.895Z,97360.81
2022-12-31T01:58:21.571Z,97360.81
2022-12-31T02:00:48.321Z,97367.28
2022-12-31T02:03:14.993Z,97364.78
2022-12-31T02:05:54.736Z,97363.13
2022-12-31T02:08:21.360Z,97373.00
2022-12-31T02:10:48.075Z,97373.03
2022-12-31T02:13:14.701Z,97382.31
2022-12-31T02:16:03.181Z,97370.72
2022-12-31T02:18:39.050Z,97368.44
2022-12-31T02:21:05.585Z,97380.03
2022-12-31T02:24:01.238Z,97369.25
2022-12-31T02:26:55.681Z,97361.84
2022-12-31T02:29:50.151Z,97354.78
2022-12-31T02:32:36.872Z,97365.00
2022-12-31T02:35:13.414Z,97374.47
2022-12-31T02:37:40.119Z,97374.91
2022-12-31T02:40:08.053Z,97375.53
2022-12-31T02:42:34.669Z,97380.91
2022-12-31T02:45:01.312Z,97375.97
2022-12-31T02:47:40.300Z,97375.38
2022-12-31T02:50:37.875Z,97380.75
2022-12-31T02:53:32.549Z,97372.66
2022-12-31T02:56:33.075Z,97371.03
2022-12-31T02:59:16.407Z,97374.34
2022-12-31T03:01:44.385Z,97366.28
2022-12-31T03:04:11.270Z,97369.16
2022-12-31T03:06:37.866Z,97367.91
2022-12-31T03:09:04.498Z,97356.94
2022-12-31T03:11:31.144Z,97359.81
2022-12-31T03:13:57.880Z,97363.13
2022-12-31T03:16:24.559Z,97375.34
2022-12-31T03:18:51.205Z,97371.56
2022-12-31T03:21:18.003Z,97370.97
2022-12-31T03:23:44.679Z,97366.41
2022-12-31T03:26:11.836Z,97373.00
2022-12-31T03:28:39.886Z,97360.00
2022-12-31T03:31:07.093Z,97362.72
2022-12-31T03:33:35.286Z,97363.78
2022-12-31T03:36:06.864Z,97353.44
2022-12-31T03:38:33.582Z,97359.06
2022-12-31T03:41:00.236Z,97360.47
2022-12-31T03:43:26.868Z,97359.66
2022-12-31T03:45:54.113Z,97359.44
2022-12-31T03:48:21.798Z,97365.22
2022-12-31T03:50:48.456Z,97357.78
2022-12-31T03:53:15.114Z,97362.75
2022-12-31T03:55:41.749Z,97363.19
2022-12-31T03:58:08.359Z,97365.47
2022-12-31T04:00:34.941Z,97364.44
2022-12-31T04:03:01.618Z,97362.78
2022-12-31T04:05:28.259Z,97372.03
2022-12-31T04:07:54.853Z,97366.28
2022-12-31T04:10:21.536Z,97375.53
2022-12-31T04:12:48.187Z,97380.91
2022-12-31T04:15:19.306Z,97373.31
2022-12-31T04:17:46.396Z,97372.09
2022-12-31T04:20:13.063Z,97363.81
2022-12-31T04:22:39.710Z,97354.09
2022-12-31T04:25:07.571Z,97348.75
2022-12-31T04:27:34.245Z,97366.13
2022-12-31T04:30:00.974Z,97370.22
2022-12-31T04:32:27.608Z,97365.41
2022-12-31T04:34:54.334Z,97373.25
2022-12-31T04:37:20.983Z,97369.31
2022-12-31T04:39:47.613Z,97366.88
2022-12-31T04:42:14.261Z,97376.56
2022-12-31T04:44:40.917Z,97366.63
2022-12-31T04:47:07.565Z,97371.38
2022-12-31T04:49:34.167Z,97374.66
2022-12-31T04:52:00.799Z,97384.22
2022-12-31T04:54:27.451Z,97381.28
2022-12-31T04:56:54.168Z,97381.88
2022-12-31T04:59:20.850Z,97369.91
2022-12-31T05:01:47.590Z,97369.53
2022-12-31T05:04:14.317Z,97364.97
2022-12-31T05:06:40.987Z,97362.97
2022-12-31T05:09:07.605Z,97377.88
2022-12-31T05:11:34.193Z,97376.84
2022-12-31T05:14:00.789Z,97382.66
2022-12-31T05:16:27.452Z,97376.06
2022-12-31T05:18:54.072Z,97372.31
2022-12-31T05:21:21.034Z,97370.88
2022-12-31T05:23:47.831Z,97365.75
2022-12-31T05:26:14.412Z,97374.41
2022-12-31T05:28:41.056Z,97379.78
2022-12-31T05:31:07.707Z,97374.84
2022-12-31T05:33:34.384Z,97376.09
2022-12-31T05:36:01.046Z,97371.94
2022-12-31T05:38:27.650Z,97373.16
2022-12-31T05:41:04.220Z,97368.63
2022-12-31T05:43:31.097Z,97374.22
2022-12-31T05:46:00.721Z,97368.66
2022-12-31T05:48:27.480Z,97386.19
2022-12-31T05:50:54.106Z,97388.88
2022-12-31T05:53:20.753Z,97385.19
2022-12-31T05:55:47.569Z,97385.16
2022-12-31T05:58:15.235Z,97388.47
2022-12-31T06:00:41.943Z,97397.78
2022-12-31T06:03:08.688Z,97387.84
2022-12-31T06:05:35.402Z,97383.09
2022-12-31T06:08:02.051Z,97391.56
2022-12-31T06:10:28.702Z,97396.31
2022-12-31T06:12:55.346Z,97396.94
2022-12-31T06:15:21.986Z,97401.69
2022-12-31T06:17:48.576Z,97407.69
2022-12-31T06:20:15.210Z,97405.19
2022-12-31T06:22:41.874Z,97394.66
2022-12-31T06:25:08.890Z,97401.88
2022-12-31T06:27:35.534Z,97388.06
2022-12-31T06:30:02.146Z,97396.31
2022-12-31T06:32:28.795Z,97394.03
2022-12-31T06:34:55.431Z,97389.50
2022-12-31T06:37:22.127Z,97388.66
2022-12-31T06:39:50.322Z,97399.63
2022-12-31T06:42:16.959Z,97404.97
2022-12-31T06:44:43.555Z,97408.69
2022-12-31T06:47:10.283Z,97406.84
2022-12-31T06:49:36.934Z,97407.25
2022-12-31T06:52:03.556Z,97408.88
2022-12-31T06:54:30.235Z,97405.78
2022-12-31T06:56:57.295Z,97414.88
2022-12-31T06:59:28.287Z,97412.59
2022-12-31T07:02:05.484Z,97406.63
2022-12-31T07:04:35.027Z,97405.38
2022-12-31T07:07:22.750Z,97397.72
2022-12-31T07:09:55.336Z,97405.97
2022-12-31T07:12:37.954Z,97410.94
2022-12-31T07:15:06.603Z,97408.47
2022-12-31T07:17:54.707Z,97407.44
2022-12-31T07:20:21.744Z,97408.28
2022-12-31T07:22:48.814Z,97408.69
2022-12-31T07:25:18.764Z,97411.38
2022-12-31T07:28:06.291Z,97406.22
2022-12-31T07:30:44.989Z,97409.13
2022-12-31T07:33:17.540Z,97414.09
2022-12-31T07:35:54.119Z,97422.13
2022-12-31T07:38:34.221Z,97420.06
2022-12-31T07:41:09.314Z,97424.59
2022-12-31T07:44:01.607Z,97424.78
2022-12-31T07:46:36.124Z,97426.03
2022-12-31T07:49:03.033Z,97437.59
2022-12-31T07:51:30.011Z,97437.59
2022-12-31T07:53:56.627Z,97428.88
2022-12-31T07:56:23.425Z,97427.25
2022-12-31T07:59:09.100Z,97433.47
2022-12-31T08:01:40.133Z,97433.06
2022-12-31T08:04:18.338Z,97432.66
2022-12-31T08:07:42.204Z,97420.69
2022-12-31T08:10:27.661Z,97420.28
2022-12-31T08:13:01.714Z,97425.22
2022-12-31T08:15:30.698Z,97424.59
2022-12-31T08:17:57.831Z,97419.66
2022-12-31T08:20:24.802Z,97423.16
2022-12-31T08:23:15.832Z,97428.53
2022-12-31T08:25:55.612Z,97423.56
2022-12-31T08:28:43.837Z,97422.56
2022-12-31T08:31:27.164Z,97433.06
2022-12-31T08:34:31.144Z,97425.47
2022-12-31T08:37:05.893Z,97435.41
2022-12-31T08:39:32.406Z,97445.94
2022-12-31T08:41:59.063Z,97444.28
2022-12-31T08:44:57.911Z,97449.41
2022-12-31T08:47:58.000Z,97444.88
2022-12-31T08:50:26.604Z,97452.53
2022-12-31T08:52:53.521Z,97454.19
2022-12-31T08:55:20.508Z,97448.59
2022-12-31T08:58:04.777Z,97447.56
2022-12-31T09:00:31.425Z,97444.25
2022-12-31T09:03:03.950Z,97447.75
2022-12-31T09:05:57.130Z,97447.09
2022-12-31T09:08:29.807Z,97449.56
2022-12-31T09:11:25.050Z,97447.50
2022-12-31T09:14:00.850Z,97433.63
2022-12-31T09:16:27.415Z,97438.16
2022-12-31T09:18:54.058Z,97434.63
2022-12-31T09:21:20.808Z,97432.94
2022-12-31T09:23:47.516Z,97440.00
2022-12-31T09:26:25.958Z,97433.94
2022-12-31T09:29:09.817Z,97438.88
2022-12-31T09:31:48.839Z,97437.84
2022-12-31T09:34:24.300Z,97437.16
2022-12-31T09:36:54.663Z,97435.69
2022-12-31T09:39:43.112Z,97442.53
2022-12-31T09:42:21.812Z,97434.63
2022-12-31T09:44:54.451Z,97431.94
2022-12-31T09:48:02.959Z,97434.41
2022-12-31T09:50:35.568Z,97430.03
2022-12-31T09:53:11.008Z,97422.78
2022-12-31T09:55:56.510Z,97427.75
2022-12-31T09:58:38.305Z,97426.50
2022-12-31T10:01:21.530Z,97413.81
2022-12-31T10:04:15.740Z,97402.38
2022-12-31T10:07:05.318Z,97403.66
2022-12-31T10:09:41.044Z,97393.66
2022-12-31T10:12:25.038Z,97399.81
2022-12-31T10:15:03.879Z,97405.09
2022-12-31T10:17:49.179Z,97400.47
2022-12-31T10:20:45.081Z,97389.03
2022-12-31T10:23:33.375Z,97384.69
2022-12-31T10:26:10.520Z,97380.06
2022-12-31T10:28:49.101Z,97390.19
2022-12-31T10:31:41.905Z,97380.09
2022-12-31T10:34:18.938Z,97373.25
2022-12-31T10:36:57.874Z,97374.66
2022-12-31T10:39:43.590Z,97369.44
2022-12-31T10:42:25.237Z,97365.44
2022-12-31T10:45:10.554Z,97373.78
2022-12-31T10:47:55.301Z,97361.28
2022-12-31T10:50:47.689Z,97366.41
2022-12-31T10:53:17.152Z,97360.69
2022-12-31T10:56:22.893Z,97357.47
2022-12-31T10:59:11.230Z,97357.19
2022-12-31T11:01:59.240Z,97351.78
2022-12-31T11:05:03.551Z,97351.03
2022-12-31T11:07:54.597Z,97350.34
2022-12-31T11:10:49.028Z,97353.28
2022-12-31T11:13:24.428Z,97349.78
2022-12-31T11:16:18.050Z,97339.72
2022-12-31T11:19:12.246Z,97329.91
2022-12-31T11:21:41.353Z,97331.63
2022-12-31T11:24:26.533Z,97330.63
2022-12-31T11:26:58.820Z,97327.69
2022-12-31T11:29:30.468Z,97326.31
2022-12-31T11:32:22.792Z,97318.09
2022-12-31T11:34:59.732Z,97314.06
2022-12-31T11:38:04.065Z,97307.75
2022-12-31T11:40:39.435Z,97303.53
2022-12-31T11:43:30.461Z,97302.97
2022-12-31T11:46:32.150Z,97287.03
2022-12-31T11:49:29.578Z,97289.97
2022-12-31T11:52:03.716Z,97273.16
2022-12-31T11:54:33.331Z,97285.84
2022-12-31T11:57:01.950Z,97280.81
2022-12-31T11:59:28.622Z,97271.06
2022-12-31T12:02:04.518Z,97267.03
2022-12-31T12:04:32.154Z,97265.00
2022-12-31T12:06:58.795Z,97258.75
2022-12-31T12:09:27.847Z,97258.53
2022-12-31T12:12:01.984Z,97253.00
2022-12-31T12:14:35.870Z,97255.69
2022-12-31T12:17:05.429Z,97253.94
2022-12-31T12:19:33.452Z,97252.09
2022-12-31T12:22:08.735Z,97243.03
2022-12-31T12:24:35.383Z,97238.81
2022-12-31T12:27:02.029Z,97230.72
2022-12-31T12:29:30.379Z,97227.75
2022-12-31T12:32:15.838Z,97233.75
2022-12-31T12:34:49.189Z,97230.59
2022-12-31T12:37:31.764Z,97227.75
2022-12-31T12:40:02.908Z,97227.53
2022-12-31T12:42:29.916Z,97233.16
2022-12-31T12:45:17.230Z,97232.47
2022-12-31T12:47:44.019Z,97236.09
2022-12-31T12:50:22.096Z,97240.81
2022-12-31T12:53:36.061Z,97232.22
2022-12-31T12:56:06.474Z,97240.66
2022-12-31T12:58:51.000Z,97236.69
2022-12-31T13:01:38.980Z,97245.38
2022-12-31T13:04:34.138Z,97234.56
2022-12-31T13:07:34.621Z,97227.97
2022-12-31T13:10:07.486Z,97226.34
2022-12-31T13:13:25.827Z,97231.16
2022-12-31T13:16:03.725Z,97219.28
2022-12-31T13:18:45.470Z,97234.22
2022-12-31T13:21:30.330Z,97226.94
2022-12-31T13:24:32.279Z,97232.31
2022-12-31T13:27:17.656Z,97233.72
2022-12-31T13:29:44.390Z,97233.72
2022-12-31T13:32:12.831Z,97232.06
2022-12-31T13:34:40.956Z,97239.13
2022-12-31T13:37:21.428Z,97236.44
2022-12-31T13:39:48.091Z,97242.88
2022-12-31T13:42:22.263Z,97242.06
2022-12-31T13:44:56.341Z,97247.25
2022-12-31T13:47:45.408Z,97236.44
2022-12-31T13:50:19.782Z,97239.03
2022-12-31T13:52:54.997Z,97250.56
2022-12-31T13:55:28.097Z,97244.94
2022-12-31T13:58:05.913Z,97240.69
2022-12-31T14:00:57.806Z,97250.53
2022-12-31T14:03:50.954Z,97268.75
2022-12-31T14:06:32.520Z,97264.75
2022-12-31T14:08:59.408Z,97260.78
2022-12-31T14:11:53.163Z,97263.13
2022-12-31T14:14:35.714Z,97253.78
2022-12-31T14:17:14.317Z,97262.75
2022-12-31T14:19:45.411Z,97256.06
2022-12-31T14:22:33.898Z,97266.28
2022-12-31T14:25:00.502Z,97262.63
2022-12-31T14:27:33.154Z,97263.94
2022-12-31T14:30:02.002Z,97266.16
2022-12-31T14:32:47.351Z,97271.44
2022-12-31T14:35:52.516Z,97264.41
2022-12-31T14:38:24.740Z,97271.91
2022-12-31T14:41:11.519Z,97271.91
2022-12-31T14:44:03.466Z,97281.63
2022-12-31T14:46:35.824Z,97285.78
2022-12-31T14:49:21.092Z,97284.94
2022-12-31T14:51:47.693Z,97281.38
2022-12-31T14:54:36.181Z,97276.16
2022-12-31T14:57:17.813Z,97274.41
2022-12-31T14:59:55.609Z,97282.03
2022-12-31T15:02:33.117Z,97280.00
2022-12-31T15:05:12.080Z,97283.06
2022-12-31T15:08:08.818Z,97285.91
2022-12-31T15:10:35.368Z,97293.63
2022-12-31T15:13:03.269Z,97294.88
2022-12-31T15:15:41.611Z,97299.00
2022-12-31T15:18:26.495Z,97305.66
2022-12-31T15:20:55.844Z,97305.66
2022-12-31T15:23:24.210Z,97301.66
2022-12-31T15:26:01.925Z,97297.88
2022-12-31T15:28:36.356Z,97292.84
2022-12-31T15:31:18.221Z,97295.75
2022-12-31T15:34:04.530Z,97291.75
2022-12-31T15:36:54.482Z,97295.50
2022-12-31T15:39:29.925Z,97292.28
2022-12-31T15:42:36.268Z,97303.31
2022-12-31T15:44:50.905Z,97299.91
2022-12-31T15:47:43.083Z,97300.53
2022-12-31T15:50:18.827Z,97304.25
2022-12-31T15:52:47.356Z,97305.03
2022-12-31T15:55:33.519Z,97305.25
2022-12-31T15:58:04.998Z,97305.47
2022-12-31T16:00:55.389Z,97300.84
2022-12-31T16:03:26.127Z,97306.84
2022-12-31T16:05:56.466Z,97314.56
2022-12-31T16:08:23.902Z,97313.53
2022-12-31T16:10:50.535Z,97310.41
2022-12-31T16:13:24.816Z,97311.16
2022-12-31T16:16:03.494Z,97311.97
2022-12-31T16:18:39.815Z,97316.38
2022-12-31T16:21:06.966Z,97321.78
2022-12-31T16:23:38.790Z,97316.66
2022-12-31T16:26:08.764Z,97332.56
2022-12-31T16:28:35.549Z,97332.44
2022-12-31T16:31:03.963Z,97335.53
2022-12-31T16:33:30.693Z,97340.38
2022-12-31T16:35:58.108Z,97337.22
2022-12-31T16:38:35.146Z,97343.94
2022-12-31T16:41:01.640Z,97346.53
2022-12-31T16:43:29.129Z,97340.88
2022-12-31T16:45:57.560Z,97350.28
2022-12-31T16:48:24.270Z,97339.66
2022-12-31T16:50:52.672Z,97349.63
2022-12-31T16:53:24.152Z,97343.09
2022-12-31T16:55:53.917Z,97343.69
2022-12-31T16:58:31.371Z,97352.00
2022-12-31T17:01:13.832Z,97346.75
2022-12-31T17:03:42.705Z,97351.72
2022-12-31T17:06:09.214Z,97357.69
2022-12-31T17:08:44.042Z,97352.75
2022-12-31T17:11:28.523Z,97351.00
2022-12-31T17:14:08.215Z,97351.97
2022-12-31T17:16:35.563Z,97353.16
2022-12-31T17:19:02.165Z,97352.31
2022-12-31T17:21:29.984Z,97363.09
2022-12-31T17:24:02.124Z,97353.75
2022-12-31T17:26:30.247Z,97354.66
2022-12-31T17:28:57.428Z,97362.47
2022-12-31T17:31:34.313Z,97369.56
2022-12-31T17:34:21.701Z,97366.91
2022-12-31T17:37:06.837Z,97371.69
2022-12-31T17:39:52.727Z,97374.16
2022-12-31T17:42:30.031Z,97372.13
2022-12-31T17:44:59.540Z,97370.44
2022-12-31T17:47:35.757Z,97365.66
2022-12-31T17:50:31.705Z,97361.53
2022-12-31T17:53:09.208Z,97362.00
2022-12-31T17:55:35.893Z,97359.25
2022-12-31T17:58:03.853Z,97354.06
2022-12-31T18:00:30.512Z,97354.72
2022-12-31T18:02:57.180Z,97363.44
2022-12-31T18:05:23.823Z,97353.13
2022-12-31T18:07:50.434Z,97359.94
2022-12-31T18:10:17.445Z,97364.06
2022-12-31T18:12:44.188Z,97358.31
2022-12-31T18:15:18.436Z,97362.06
2022-12-31T18:17:45.194Z,97361.44
2022-12-31T18:20:11.913Z,97360.13
2022-12-31T18:22:39.416Z,97357.47
2022-12-31T18:25:06.252Z,97361.84
2022-12-31T18:27:32.995Z,97365.41
2022-12-31T18:30:04.474Z,97349.31
2022-12-31T18:32:32.502Z,97354.75
2022-12-31T18:34:59.146Z,97358.00
2022-12-31T18:37:28.148Z,97362.13
2022-12-31T18:39:54.777Z,97359.03
2022-12-31T18:42:21.386Z,97362.53
2022-12-31T18:44:47.969Z,97364.41
2022-12-31T18:47:18.499Z,97370.38
2022-12-31T18:49:45.175Z,97375.44
2022-12-31T18:52:18.829Z,97372.91
2022-12-31T18:54:45.519Z,97368.03
2022-12-31T18:57:12.240Z,97371.69
2022-12-31T18:59:38.910Z,97367.22
2022-12-31T19:02:07.185Z,97373.44
2022-12-31T19:04:33.864Z,97379.00
2022-12-31T19:07:00.545Z,97376.91
2022-12-31T19:12:14.285Z,97376.13
2022-12-31T19:14:40.985Z,97375.88
2022-12-31T19:19:33.142Z,97369.28
2022-12-31T19:21:59.743Z,97373.88
2022-12-31T19:24:26.545Z,97381.28
2022-12-31T19:26:53.721Z,97382.13
2022-12-31T19:29:22.286Z,97368.03
2022-12-31T19:31:49.067Z,97373.22
2022-12-31T19:34:15.760Z,97371.16
2022-12-31T19:36:44.325Z,97371.78
2022-12-31T19:39:18.893Z,97374.47
2022-12-31T19:41:45.765Z,97375.13
2022-12-31T19:44:16.098Z,97387.09
2022-12-31T19:46:42.705Z,97388.94
2022-12-31T19:49:11.334Z,97387.91
2022-12-31T19:51:37.985Z,97384.03
2022-12-31T19:54:06.675Z,97384.84
2022-12-31T19:56:33.339Z,97392.31
2022-12-31T19:59:06.299Z,97389.41
2022-12-31T20:01:33.040Z,97393.72
2022-12-31T20:03:59.728Z,97397.41
2022-12-31T20:06:26.367Z,97402.84
2022-12-31T20:08:52.980Z,97404.91
2022-12-31T20:11:20.641Z,97400.53
2022-12-31T20:13:47.912Z,97406.13
2022-12-31T20:16:18.796Z,97418.38
2022-12-31T20:18:46.015Z,97415.66
2022-12-31T20:21:14.380Z,97421.63
2022-12-31T20:23:41.002Z,97427.84
2022-12-31T20:26:07.605Z,97428.69
2022-12-31T20:28:35.127Z,97431.75
2022-12-31T20:31:14.807Z,97438.38
2022-12-31T20:33:41.725Z,97445.00
2022-12-31T20:36:10.409Z,97441.72
2022-12-31T20:38:37.064Z,97442.31
2022-12-31T20:41:10.741Z,97436.53
2022-12-31T20:43:37.639Z,97440.06
2022-12-31T20:46:15.177Z,97447.31
2022-12-31T20:48:43.035Z,97440.69
2022-12-31T20:51:09.670Z,97448.75
2022-12-31T20:53:36.295Z,97443.59
2022-12-31T20:56:06.622Z,97440.94
2022-12-31T20:58:33.394Z,97438.84
2022-12-31T21:01:00.275Z,97446.31
2022-12-31T21:04:03.049Z,97451.25
2022-12-31T21:06:13.530Z,97452.06
2022-12-31T21:08:40.373Z,97454.38
2022-12-31T21:11:07.056Z,97453.75
2022-12-31T21:13:33.675Z,97460.78
2022-12-31T21:16:00.423Z,97447.13
2022-12-31T21:18:27.079Z,97451.47
2022-12-31T21:20:53.711Z,97445.88
2022-12-31T21:23:20.316Z,97453.94
2022-12-31T21:25:49.107Z,97455.00
2022-12-31T21:28:15.715Z,97457.47
2022-12-31T21:30:42.491Z,97456.25
2022-12-31T21:33:11.409Z,97454.59
2022-12-31T21:35:45.732Z,97455.19
2022-12-31T21:38:15.572Z,97450.84
2022-12-31T21:40:42.199Z,97454.38
2022-12-31T21:43:08.794Z,97455.81
2022-12-31T21:45:35.432Z,97460.75
2022-12-31T21:48:02.086Z,97466.13
2022-12-31T21:50:28.722Z,97477.28
2022-12-31T21:52:55.323Z,97475.84
2022-12-31T21:55:21.929Z,97476.66
2022-12-31T21:58:24.338Z,97483.47
2022-12-31T22:00:43.845Z,97485.09
2022-12-31T22:03:11.605Z,97486.31
2022-12-31T22:05:38.396Z,97492.13
2022-12-31T22:08:05.138Z,97497.91
2022-12-31T22:10:37.216Z,97502.03
2022-12-31T22:13:04.263Z,97502.00
2022-12-31T22:15:31.050Z,97492.47
2022-12-31T22:17:57.683Z,97493.28
2022-12-31T22:20:28.299Z,97500.72
2022-12-31T22:22:55.388Z,97499.94
2022-12-31T22:25:22.047Z,97500.72
2022-12-31T22:28:04.464Z,97503.41
2022-12-31T22:30:35.323Z,97496.56
2022-12-31T22:33:01.930Z,97499.94
2022-12-31T22:35:28.557Z,97510.47
2022-12-31T22:37:57.922Z,97512.31
2022-12-31T22:40:25.732Z,97512.72
2022-12-31T22:42:52.377Z,97506.94
2022-12-31T22:45:19.097Z,97514.44
2022-12-31T22:47:45.756Z,97510.28
2022-12-31T22:50:12.397Z,97520.63
2022-12-31T22:52:39.044Z,97524.13
2022-12-31T22:55:06.124Z,97527.03
2022-12-31T22:57:32.759Z,97522.25
2022-12-31T22:59:59.402Z,97529.91
2022-12-31T23:02:26.083Z,97515.22
2022-12-31T23:04:52.683Z,97506.72
2022-12-31T23:07:39.238Z,97511.84
2022-12-31T23:10:06.346Z,97512.84
2022-12-31T23:12:33.047Z,97517.00
2022-12-31T23:14:59.663Z,97519.25
2022-12-31T23:17:30.757Z,97526.47
2022-12-31T23:19:59.761Z,97526.66
2022-12-31T23:22:26.435Z,97520.63
2022-12-31T23:24:53.023Z,97517.13
2022-12-31T23:27:19.722Z,97519.19
2022-12-31T23:29:47.668Z,97517.53
2022-12-31T23:32:17.503Z,97515.22
2022-12-31T23:34:44.857Z,97517.34
2022-12-31T23:37:14.911Z,97524.69
2022-12-31T23:39:41.783Z,97520.13
2022-12-31T23:42:08.428Z,97524.88
2022-12-31T23:44:35.109Z,97525.06
2022-12-31T23:47:01.795Z,97525.25
2022-12-31T23:49:28.487Z,97524.41
2022-12-31T23:51:55.206Z,97516.16
2022-12-31T23:54:21.811Z,97519.31
2022-12-31T23:56:48.415Z,97524.28
2022-12-31T23:59:15.062Z,97529.09
